Time;durP1;ratioP1;P1;durP2;ratioP2;P2;SDS_P1;SDS_P2;PMS_P1;PMS_P2;Temp;Humidity;BMP_temperature;BMP_pressure;BME280_temperature;BME280_humidity;BME280_pressure;Samples;Min_cycle;Max_cycle;Signal;HPM_P1;HPM_P2
2022/12/07 00:00:55;;;;;;;15.20;9.13;;;4.80;99.90;;;;;;4932598;28;20118;-81
2022/12/07 00:03:21;;;;;;;28.83;17.95;;;4.80;99.90;;;;;;4934816;28;20031;-81
2022/12/07 00:05:46;;;;;;;27.75;16.42;;;4.80;99.90;;;;;;4986024;28;20038;-81
2022/12/07 00:08:19;;;;;;;28.45;15.95;;;4.70;99.90;;;;;;4962876;28;20027;-80
2022/12/07 00:10:44;;;;;;;26.58;19.05;;;4.70;99.90;;;;;;4952065;28;20446;-80
2022/12/07 00:13:10;;;;;;;28.02;17.83;;;4.70;99.90;;;;;;4973995;28;20023;-80
2022/12/07 00:15:35;;;;;;;26.77;18.17;;;4.70;99.90;;;;;;4949524;28;20502;-81
2022/12/07 00:18:01;;;;;;;23.90;16.85;;;4.70;99.90;;;;;;4933904;28;20757;-81
2022/12/07 00:20:26;;;;;;;26.05;19.52;;;4.70;99.90;;;;;;4959721;28;20057;-81
2022/12/07 00:22:52;;;;;;;26.98;19.05;;;4.70;99.90;;;;;;4949669;28;20073;-81
2022/12/07 00:25:17;;;;;;;24.92;16.95;;;4.70;99.90;;;;;;4950312;28;20039;-81
2022/12/07 00:27:43;;;;;;;26.45;15.88;;;4.70;99.90;;;;;;4965142;28;20046;-80
2022/12/07 00:30:09;;;;;;;28.70;17.70;;;4.70;99.90;;;;;;4960838;28;20057;-81
2022/12/07 00:32:35;;;;;;;29.65;20.73;;;4.70;99.90;;;;;;4968531;28;20046;-82
2022/12/07 00:35:00;;;;;;;29.00;19.40;;;4.70;99.90;;;;;;4996216;28;20035;-81
2022/12/07 00:37:26;;;;;;;34.13;21.88;;;4.70;99.90;;;;;;4979459;28;20043;-81
2022/12/07 00:39:51;;;;;;;29.95;16.88;;;4.70;99.90;;;;;;4960616;28;20081;-80
2022/12/07 00:42:17;;;;;;;30.80;20.38;;;4.70;99.90;;;;;;4982957;28;20041;-81
2022/12/07 00:44:42;;;;;;;35.40;21.08;;;4.70;99.90;;;;;;4959442;28;20497;-81
2022/12/07 00:47:08;;;;;;;16.60;11.07;;;4.70;99.90;;;;;;4965654;28;20030;-81
2022/12/07 00:49:33;;;;;;;39.35;25.15;;;4.70;99.90;;;;;;4978697;28;20521;-81
2022/12/07 00:51:59;;;;;;;32.10;20.35;;;4.70;99.90;;;;;;4935886;28;20521;-81
2022/12/07 00:54:24;;;;;;;38.08;25.58;;;4.70;99.90;;;;;;4966812;28;20488;-81
2022/12/07 00:56:50;;;;;;;32.10;22.55;;;4.80;99.90;;;;;;4948982;28;20486;-81
2022/12/07 00:59:18;;;;;;;36.00;24.20;;;4.70;99.90;;;;;;4978301;28;20517;-81
2022/12/07 01:01:43;;;;;;;37.92;25.88;;;4.70;99.90;;;;;;4963829;28;20031;-81
2022/12/07 01:04:09;;;;;;;39.53;25.63;;;4.80;99.90;;;;;;4951815;28;20066;-81
2022/12/07 01:06:34;;;;;;;26.65;18.65;;;4.80;99.90;;;;;;4981198;28;20038;-81
2022/12/07 01:09:00;;;;;;;32.90;20.50;;;4.80;99.90;;;;;;4982029;28;20589;-81
2022/12/07 01:11:28;;;;;;;36.70;23.50;;;4.80;99.90;;;;;;4960633;28;20067;-80
2022/12/07 01:13:55;;;;;;;35.20;21.40;;;4.80;99.90;;;;;;4962481;28;20031;-80
2022/12/07 01:16:22;;;;;;;38.15;25.65;;;4.80;99.90;;;;;;4973429;28;20105;-81
2022/12/07 01:18:49;;;;;;;29.52;18.45;;;4.90;99.90;;;;;;4965085;28;20077;-81
2022/12/07 01:21:16;;;;;;;42.83;29.25;;;4.90;99.90;;;;;;4990392;28;20522;-81
2022/12/07 01:23:42;;;;;;;43.88;26.58;;;4.80;99.90;;;;;;4984198;28;20118;-81
2022/12/07 01:26:11;;;;;;;39.63;24.92;;;4.90;99.90;;;;;;4936980;28;20095;-80
2022/12/07 01:28:36;;;;;;;37.83;23.60;;;4.90;99.90;;;;;;4948447;28;20039;-80
2022/12/07 01:31:07;;;;;;;39.45;25.98;;;4.80;99.90;;;;;;4968706;28;20838;-81
2022/12/07 01:33:34;;;;;;;52.17;32.97;;;4.90;99.90;;;;;;4983535;28;20368;-81
2022/12/07 01:36:05;;;;;;;34.78;21.42;;;4.90;99.90;;;;;;4968818;28;20069;-82
2022/12/07 01:38:31;;;;;;;38.95;25.90;;;4.90;99.90;;;;;;4966978;28;20042;-80
2022/12/07 01:40:56;;;;;;;38.17;24.70;;;5.00;99.90;;;;;;5001325;28;20503;-80
2022/12/07 01:43:23;;;;;;;49.45;28.75;;;4.90;99.90;;;;;;4966269;28;20059;-81
2022/12/07 01:45:48;;;;;;;44.55;29.40;;;4.90;99.90;;;;;;4935931;28;20114;-81
2022/12/07 01:48:15;;;;;;;49.30;30.42;;;4.90;99.90;;;;;;4966750;28;20122;-80
2022/12/07 01:50:42;;;;;;;56.42;32.35;;;4.90;99.90;;;;;;4985275;28;21347;-81
2022/12/07 01:53:08;;;;;;;46.53;28.40;;;4.90;99.90;;;;;;4966693;28;20061;-80
2022/12/07 01:55:34;;;;;;;44.58;24.67;;;4.90;99.90;;;;;;4934213;28;20051;-80
2022/12/07 01:58:00;;;;;;;49.50;32.03;;;4.90;99.90;;;;;;4966338;28;20444;-80
2022/12/07 02:00:26;;;;;;;46.55;28.92;;;4.90;99.90;;;;;;4988441;28;20643;-81
2022/12/07 02:02:57;;;;;;;48.40;30.25;;;4.90;99.90;;;;;;4949248;28;20438;-81
2022/12/07 02:05:26;;;;;;;49.65;28.55;;;4.90;99.90;;;;;;4961638;28;20502;-81
2022/12/07 02:07:52;;;;;;;50.50;31.35;;;4.90;99.90;;;;;;4950728;28;20035;-81
2022/12/07 02:10:22;;;;;;;43.80;25.35;;;4.80;99.90;;;;;;4938318;28;20037;-81
2022/12/07 02:12:53;;;;;;;52.08;28.58;;;4.90;99.90;;;;;;4980140;28;20070;-81
2022/12/07 02:15:19;;;;;;;54.00;33.10;;;4.90;99.90;;;;;;4995521;28;20046;-81
2022/12/07 02:17:57;;;;;;;55.33;31.50;;;4.80;99.90;;;;;;4982594;28;20089;-80
2022/12/07 02:20:55;;;;;;;46.92;28.35;;;4.90;99.90;;;;;;4968372;28;20038;-80
2022/12/07 02:23:29;;;;;;;54.25;33.28;;;4.80;99.90;;;;;;4956954;28;20039;-81
2022/12/07 02:26:15;;;;;;;39.75;22.67;;;4.90;99.90;;;;;;4997086;28;20510;-80
2022/12/07 02:29:13;;;;;;;42.58;25.10;;;4.80;99.90;;;;;;4969957;28;20427;-81
2022/12/07 02:31:43;;;;;;;42.30;25.45;;;4.90;99.90;;;;;;5000477;28;20035;-81
2022/12/07 02:34:19;;;;;;;44.85;27.25;;;4.80;99.90;;;;;;4969284;28;20036;-81
2022/12/07 02:36:50;;;;;;;52.17;30.52;;;4.80;99.90;;;;;;4982489;28;20101;-81
2022/12/07 02:39:19;;;;;;;51.75;32.65;;;4.80;99.90;;;;;;4962966;28;20019;-81
2022/12/07 02:41:47;;;;;;;51.35;33.20;;;4.70;99.90;;;;;;4967989;28;20030;-81
2022/12/07 02:44:14;;;;;;;43.05;27.05;;;4.70;99.90;;;;;;4943900;28;20109;-81
2022/12/07 02:46:46;;;;;;;43.70;27.75;;;4.70;99.90;;;;;;4949892;28;20043;-81
2022/12/07 02:49:12;;;;;;;49.20;31.10;;;4.70;99.90;;;;;;4986581;28;20046;-81
2022/12/07 02:51:44;;;;;;;50.58;30.70;;;4.70;99.90;;;;;;4972277;28;20496;-81
2022/12/07 02:54:19;;;;;;;36.88;24.00;;;4.80;99.90;;;;;;4962003;28;20035;-81
2022/12/07 02:56:44;;;;;;;50.42;28.85;;;4.80;99.90;;;;;;4984121;28;20031;-80
2022/12/07 02:59:26;;;;;;;44.53;26.52;;;4.70;99.90;;;;;;4985768;28;20035;-81
2022/12/07 03:02:22;;;;;;;50.38;28.60;;;4.60;99.90;;;;;;4982021;28;20501;-80
2022/12/07 03:04:59;;;;;;;46.83;26.77;;;4.60;99.90;;;;;;4954000;28;20109;-80
2022/12/07 03:07:37;;;;;;;40.30;22.80;;;4.70;99.90;;;;;;4982480;28;20027;-80
2022/12/07 03:10:17;;;;;;;44.13;25.73;;;4.60;99.90;;;;;;4966856;28;20066;-80
2022/12/07 03:13:09;;;;;;;48.40;28.10;;;4.60;99.90;;;;;;4968366;28;20025;-80
2022/12/07 03:16:02;;;;;;;47.30;27.95;;;4.60;99.90;;;;;;4981405;28;20050;-80
2022/12/07 03:18:29;;;;;;;40.78;23.02;;;4.50;99.90;;;;;;4996518;28;20045;-80
2022/12/07 03:20:57;;;;;;;46.00;26.55;;;4.60;99.90;;;;;;4963062;28;20495;-79
2022/12/07 03:23:23;;;;;;;37.88;23.63;;;4.50;99.90;;;;;;4950008;28;20070;-80
2022/12/07 03:25:50;;;;;;;47.50;27.83;;;4.50;99.90;;;;;;4932677;28;20065;-79
2022/12/07 03:28:17;;;;;;;37.15;21.92;;;4.50;99.90;;;;;;4966745;28;20031;-80
2022/12/07 03:30:57;;;;;;;41.85;22.67;;;4.40;99.90;;;;;;4934625;28;20034;-80
2022/12/07 03:33:39;;;;;;;42.70;24.80;;;4.40;99.90;;;;;;4965365;28;20038;-80
2022/12/07 03:36:19;;;;;;;26.00;14.60;;;4.30;99.90;;;;;;4968359;28;20043;-80
2022/12/07 03:38:47;;;;;;;51.40;27.30;;;4.30;99.90;;;;;;4981328;28;20129;-80
2022/12/07 03:41:33;;;;;;;42.65;25.70;;;4.20;99.90;;;;;;4984083;28;20032;-80
2022/12/07 03:43:59;;;;;;;42.05;22.33;;;4.10;99.90;;;;;;4943524;28;20058;-80
2022/12/07 03:46:34;;;;;;;46.85;28.90;;;4.20;99.90;;;;;;4985531;28;20049;-80
2022/12/07 03:49:03;;;;;;;53.22;30.05;;;4.10;99.90;;;;;;4967300;28;20031;-81
2022/12/07 03:51:44;;;;;;;43.53;24.25;;;4.10;99.90;;;;;;5000517;28;20486;-80
2022/12/07 03:54:11;;;;;;;49.13;27.20;;;4.10;99.90;;;;;;4983433;28;20035;-80
2022/12/07 03:56:36;;;;;;;34.15;21.50;;;4.10;99.90;;;;;;4999914;28;20038;-80
2022/12/07 03:59:02;;;;;;;52.60;29.23;;;4.10;99.90;;;;;;4962219;28;20035;-80
2022/12/07 04:01:27;;;;;;;53.75;29.00;;;4.10;99.90;;;;;;4965397;28;20033;-80
2022/12/07 04:03:53;;;;;;;38.22;23.83;;;4.10;99.90;;;;;;4934552;28;20046;-81
2022/12/07 04:06:18;;;;;;;53.17;29.60;;;4.10;99.90;;;;;;4973075;28;20085;-80
2022/12/07 04:08:44;;;;;;;54.13;29.27;;;4.20;99.90;;;;;;5000400;28;20043;-80
2022/12/07 04:11:10;;;;;;;38.47;22.90;;;4.20;99.90;;;;;;4981867;28;20059;-80
2022/12/07 04:14:18;;;;;;;47.28;27.20;;;4.20;99.90;;;;;;4968829;28;20106;-80
2022/12/07 04:16:21;;;;;;;51.83;24.43;;;4.20;99.90;;;;;;4963448;28;20037;-80
2022/12/07 04:18:46;;;;;;;43.40;24.52;;;4.20;99.90;;;;;;4959441;28;20121;-80
2022/12/07 04:21:12;;;;;;;54.45;29.20;;;4.20;99.90;;;;;;4967792;28;20031;-81
2022/12/07 04:23:37;;;;;;;44.33;25.02;;;4.20;99.90;;;;;;4982707;28;20031;-81
2022/12/07 04:26:03;;;;;;;38.72;22.42;;;4.20;99.90;;;;;;4976806;28;20039;-80
2022/12/07 04:28:28;;;;;;;51.60;30.73;;;4.10;99.90;;;;;;4961778;28;20110;-81
2022/12/07 04:30:54;;;;;;;58.30;28.95;;;4.10;99.90;;;;;;4931934;28;20073;-81
2022/12/07 04:33:19;;;;;;;47.35;24.33;;;4.00;99.90;;;;;;4951290;28;20111;-81
2022/12/07 04:35:45;;;;;;;44.90;24.23;;;4.10;99.90;;;;;;4979081;28;20035;-81
2022/12/07 04:38:10;;;;;;;54.15;28.17;;;4.10;99.90;;;;;;4985688;28;20034;-80
2022/12/07 04:40:36;;;;;;;39.15;18.85;;;4.00;99.90;;;;;;4932419;28;20032;-80
2022/12/07 04:43:02;;;;;;;46.25;24.60;;;4.00;99.90;;;;;;4962589;28;20027;-80
2022/12/07 04:45:27;;;;;;;45.53;26.35;;;4.00;99.90;;;;;;4933206;28;20039;-80
2022/12/07 04:47:53;;;;;;;34.53;17.55;;;4.00;99.90;;;;;;4947659;28;20027;-80
2022/12/07 04:50:18;;;;;;;39.10;21.75;;;4.00;99.90;;;;;;4953560;28;20490;-80
2022/12/07 04:52:44;;;;;;;45.40;24.63;;;4.00;99.90;;;;;;4948091;28;20085;-80
2022/12/07 04:55:09;;;;;;;43.55;24.05;;;3.90;99.90;;;;;;4933093;28;20399;-80
2022/12/07 04:57:35;;;;;;;43.53;23.58;;;3.90;99.90;;;;;;4934242;28;20041;-80
2022/12/07 05:00:00;;;;;;;43.42;24.92;;;3.90;99.90;;;;;;4978254;28;20031;-81
2022/12/07 05:02:26;;;;;;;39.85;23.45;;;3.90;99.90;;;;;;4935963;28;20085;-80
2022/12/07 05:04:51;;;;;;;48.85;25.55;;;3.90;99.90;;;;;;4960387;28;20046;-80
2022/12/07 05:07:17;;;;;;;40.05;23.85;;;3.90;99.90;;;;;;4948868;28;20038;-80
2022/12/07 05:09:43;;;;;;;38.58;21.20;;;3.80;99.90;;;;;;4960033;28;20065;-80
2022/12/07 05:12:10;;;;;;;34.90;18.13;;;3.70;99.90;;;;;;4978783;28;20061;-80
2022/12/07 05:14:36;;;;;;;37.15;21.30;;;3.90;99.90;;;;;;4967784;28;20038;-80
2022/12/07 05:17:02;;;;;;;40.03;24.88;;;3.90;99.90;;;;;;4931530;28;20038;-80
2022/12/07 05:19:27;;;;;;;40.92;20.65;;;3.80;99.90;;;;;;4948658;28;20041;-81
2022/12/07 05:21:53;;;;;;;30.67;17.35;;;3.80;99.90;;;;;;4930273;28;20082;-81
2022/12/07 05:24:18;;;;;;;35.13;21.00;;;3.90;99.90;;;;;;4944042;28;20031;-80
2022/12/07 05:26:44;;;;;;;40.10;23.70;;;3.80;99.90;;;;;;4964881;28;20431;-81
2022/12/07 05:29:12;;;;;;;40.25;23.15;;;3.80;99.90;;;;;;4932616;28;20098;-81
2022/12/07 05:31:37;;;;;;;37.05;21.45;;;3.80;99.90;;;;;;4968655;28;20043;-81
2022/12/07 05:34:03;;;;;;;36.72;22.02;;;3.80;99.90;;;;;;4980553;28;20034;-81
2022/12/07 05:36:30;;;;;;;31.98;17.20;;;3.80;99.90;;;;;;4981637;28;20394;-81
2022/12/07 05:38:56;;;;;;;36.30;19.70;;;3.80;99.90;;;;;;4932157;28;20102;-81
2022/12/07 05:44:06;;;;;;;34.83;19.35;;;3.80;99.90;;;;;;4946339;28;20062;-82
2022/12/07 05:46:31;;;;;;;28.95;16.35;;;3.80;99.90;;;;;;4957190;28;20483;-82
2022/12/07 05:48:57;;;;;;;27.55;16.23;;;3.90;99.90;;;;;;4961566;28;20042;-80
2022/12/07 05:51:22;;;;;;;28.50;16.80;;;3.80;99.90;;;;;;4930321;28;20043;-80
2022/12/07 05:53:48;;;;;;;30.88;17.45;;;3.90;99.90;;;;;;4930995;28;20027;-80
2022/12/07 05:56:14;;;;;;;37.33;19.52;;;3.90;99.90;;;;;;4960625;28;20035;-80
2022/12/07 06:01:24;;;;;;;30.15;18.40;;;3.80;99.90;;;;;;4958585;28;20038;-79
2022/12/07 06:03:50;;;;;;;32.97;19.45;;;3.80;99.90;;;;;;4932841;28;20035;-79
2022/12/07 06:06:17;;;;;;;25.58;16.23;;;3.70;99.90;;;;;;4969419;28;20074;-79
2022/12/07 06:08:43;;;;;;;28.30;16.17;;;3.80;99.90;;;;;;4963635;28;20049;-79
2022/12/07 06:13:53;;;;;;;28.27;16.17;;;3.80;99.90;;;;;;4980483;28;20085;-79
2022/12/07 06:16:18;;;;;;;34.10;18.95;;;3.70;99.90;;;;;;4966113;28;20035;-78
2022/12/07 06:18:44;;;;;;;34.42;18.77;;;3.80;99.90;;;;;;4962833;28;20019;-79
2022/12/07 06:21:10;;;;;;;28.35;17.48;;;3.70;99.90;;;;;;4964435;28;20113;-79
2022/12/07 06:23:36;;;;;;;33.83;17.38;;;3.80;99.90;;;;;;4980547;28;20423;-79
2022/12/07 06:26:01;;;;;;;29.30;17.48;;;3.80;99.90;;;;;;4975087;28;20026;-79
2022/12/07 06:28:27;;;;;;;21.77;12.98;;;3.80;99.90;;;;;;4979684;28;20035;-79
2022/12/07 06:30:59;;;;;;;30.52;14.68;;;3.80;99.90;;;;;;4961695;28;20027;-79
2022/12/07 06:33:25;;;;;;;29.00;13.88;;;3.70;99.90;;;;;;4948733;28;20054;-79
2022/12/07 06:35:52;;;;;;;23.77;12.07;;;3.70;99.90;;;;;;4934033;28;20038;-79
2022/12/07 06:38:18;;;;;;;23.10;11.75;;;3.80;99.90;;;;;;4980189;28;20027;-79
2022/12/07 06:40:43;;;;;;;23.38;13.63;;;3.80;99.90;;;;;;4964052;28;20368;-79
2022/12/07 06:43:09;;;;;;;25.67;13.07;;;3.80;99.90;;;;;;4952040;28;20046;-79
2022/12/07 06:45:34;;;;;;;21.10;14.10;;;3.80;99.90;;;;;;4975206;28;20045;-79
2022/12/07 06:48:00;;;;;;;27.85;14.45;;;3.80;99.90;;;;;;4961891;28;20483;-79
2022/12/07 06:50:26;;;;;;;22.38;14.25;;;3.70;99.90;;;;;;4962502;28;20035;-78
2022/12/07 06:52:51;;;;;;;22.55;13.63;;;3.80;99.90;;;;;;4931039;28;20055;-78
2022/12/07 06:55:17;;;;;;;22.75;12.13;;;3.80;99.90;;;;;;4931436;28;20038;-79
2022/12/07 06:57:42;;;;;;;20.23;12.43;;;3.80;99.90;;;;;;4960502;28;20023;-79
2022/12/07 07:00:09;;;;;;;19.38;11.65;;;3.80;99.90;;;;;;4959625;28;20035;-80
2022/12/07 07:02:34;;;;;;;24.00;13.95;;;3.80;99.90;;;;;;4967923;28;20039;-78
2022/12/07 07:05:00;;;;;;;24.92;12.93;;;3.80;99.90;;;;;;4982012;28;20053;-79
2022/12/07 07:07:28;;;;;;;18.90;10.38;;;3.80;99.90;;;;;;4933316;28;20054;-79
2022/12/07 07:09:53;;;;;;;18.13;10.63;;;3.90;99.90;;;;;;4945386;28;20035;-79
2022/12/07 07:12:19;;;;;;;18.70;11.85;;;3.80;99.90;;;;;;4968115;28;20070;-79
2022/12/07 07:14:44;;;;;;;27.40;13.02;;;3.80;99.90;;;;;;4959545;28;21018;-79
2022/12/07 07:17:10;;;;;;;26.50;13.43;;;3.80;99.90;;;;;;4983884;28;20454;-79
2022/12/07 07:19:37;;;;;;;21.77;10.88;;;3.70;99.90;;;;;;4968587;28;20109;-78
2022/12/07 07:22:03;;;;;;;15.82;10.95;;;3.70;99.90;;;;;;4933487;28;20027;-78
2022/12/07 07:24:29;;;;;;;15.38;9.80;;;3.70;99.90;;;;;;4980626;28;20022;-79
2022/12/07 07:26:57;;;;;;;25.73;12.73;;;3.70;99.90;;;;;;4995138;28;20101;-79
2022/12/07 07:29:23;;;;;;;23.40;12.35;;;3.60;99.90;;;;;;4932315;28;20038;-79
2022/12/07 07:31:48;;;;;;;26.98;13.93;;;3.60;99.90;;;;;;4931478;28;20646;-79
2022/12/07 07:34:14;;;;;;;18.80;11.02;;;3.60;99.90;;;;;;4977461;28;20031;-79
2022/12/07 07:36:39;;;;;;;26.63;13.27;;;3.50;99.90;;;;;;4945925;28;20388;-80
2022/12/07 07:39:06;;;;;;;18.95;11.82;;;3.60;99.90;;;;;;4964664;28;20035;-79
2022/12/07 07:41:32;;;;;;;22.40;11.98;;;3.50;99.90;;;;;;4966125;28;20399;-79
2022/12/07 07:43:58;;;;;;;16.65;9.90;;;3.50;99.90;;;;;;4934236;28;20046;-79
2022/12/07 07:46:23;;;;;;;14.45;9.75;;;3.50;99.90;;;;;;4960813;28;20110;-79
2022/12/07 07:48:49;;;;;;;22.02;13.30;;;3.50;99.90;;;;;;4947536;28;20459;-80
2022/12/07 07:51:14;;;;;;;24.85;13.13;;;3.50;99.90;;;;;;4981549;28;20030;-79
2022/12/07 07:53:40;;;;;;;23.73;12.07;;;3.50;99.90;;;;;;4982497;28;20964;-79
2022/12/07 07:56:05;;;;;;;21.17;12.18;;;3.50;99.90;;;;;;4980693;28;20455;-79
2022/12/07 07:58:31;;;;;;;18.35;9.07;;;3.50;99.90;;;;;;4946149;28;20031;-79
2022/12/07 08:00:56;;;;;;;15.55;10.25;;;3.60;99.90;;;;;;4960442;28;20487;-79
2022/12/07 08:03:22;;;;;;;19.67;11.88;;;3.70;99.90;;;;;;4982236;28;20804;-79
2022/12/07 08:05:48;;;;;;;27.48;15.18;;;3.60;99.90;;;;;;4957104;28;20051;-79
2022/12/07 08:08:13;;;;;;;15.57;10.38;;;3.60;99.90;;;;;;4966619;28;20403;-79
2022/12/07 08:10:39;;;;;;;19.85;11.27;;;3.60;99.90;;;;;;4979536;28;20403;-79
2022/12/07 08:13:10;;;;;;;18.27;9.75;;;3.60;99.90;;;;;;4960675;28;20054;-79
2022/12/07 08:15:37;;;;;;;17.95;10.82;;;3.60;99.90;;;;;;4975826;28;20118;-79
2022/12/07 08:18:03;;;;;;;22.98;12.25;;;3.70;99.90;;;;;;4960274;28;20505;-79
2022/12/07 08:20:30;;;;;;;23.92;11.93;;;3.70;99.90;;;;;;4933411;28;20031;-79
2022/12/07 08:22:55;;;;;;;26.40;13.05;;;3.70;99.90;;;;;;4976189;28;20085;-79
2022/12/07 08:25:22;;;;;;;20.80;11.18;;;3.70;99.90;;;;;;4980481;28;20130;-79
2022/12/07 08:27:48;;;;;;;26.70;11.55;;;3.70;99.90;;;;;;4931780;28;20038;-79
2022/12/07 08:30:14;;;;;;;25.05;12.25;;;3.70;99.90;;;;;;4959462;28;20034;-79
2022/12/07 08:32:39;;;;;;;19.30;8.55;;;3.80;99.90;;;;;;4928395;28;20039;-79
2022/12/07 08:35:05;;;;;;;18.92;10.30;;;3.90;99.90;;;;;;4978535;28;20449;-79
2022/12/07 08:37:31;;;;;;;19.30;10.48;;;3.90;99.90;;;;;;4934932;28;20117;-79
2022/12/07 08:39:59;;;;;;;19.38;10.18;;;4.00;99.90;;;;;;4954947;28;20032;-79
2022/12/07 08:42:29;;;;;;;11.48;6.80;;;3.90;99.90;;;;;;4931422;28;20072;-79
2022/12/07 08:44:57;;;;;;;16.75;9.35;;;4.00;99.90;;;;;;4944967;28;20059;-79
2022/12/07 08:47:23;;;;;;;23.95;9.63;;;4.00;99.90;;;;;;4961866;28;20451;-79
2022/12/07 08:49:49;;;;;;;8.55;4.85;;;4.10;99.90;;;;;;4941305;28;20027;-79
2022/12/07 08:52:15;;;;;;;13.57;7.85;;;4.10;99.90;;;;;;4978641;28;20065;-79
2022/12/07 08:54:41;;;;;;;11.63;7.53;;;4.20;99.90;;;;;;4942697;28;20070;-79
2022/12/07 08:57:06;;;;;;;13.57;4.53;;;4.20;99.90;;;;;;4977061;28;20031;-79
2022/12/07 08:59:32;;;;;;;20.88;9.63;;;4.20;99.90;;;;;;4927794;28;20039;-78
2022/12/07 09:01:58;;;;;;;17.88;9.45;;;4.20;99.90;;;;;;4955421;28;20032;-79
2022/12/07 09:04:23;;;;;;;15.93;9.55;;;4.10;99.90;;;;;;4983102;28;20028;-79
2022/12/07 09:06:49;;;;;;;24.48;9.32;;;4.10;99.90;;;;;;4962878;28;20026;-79
2022/12/07 09:09:15;;;;;;;19.10;10.13;;;4.10;99.90;;;;;;4975329;28;20035;-79
2022/12/07 09:11:41;;;;;;;20.30;9.93;;;4.20;99.90;;;;;;4957708;28;20023;-79
2022/12/07 09:14:07;;;;;;;13.60;9.73;;;4.20;99.90;;;;;;4958009;28;20622;-79
2022/12/07 09:16:32;;;;;;;19.48;10.63;;;4.10;99.90;;;;;;4964217;28;20117;-79
2022/12/07 09:18:58;;;;;;;17.05;11.30;;;4.10;99.90;;;;;;4957106;28;20075;-79
2022/12/07 09:21:24;;;;;;;16.02;10.10;;;4.10;99.90;;;;;;4957268;28;20039;-80
2022/12/07 09:23:49;;;;;;;14.68;8.60;;;4.20;99.90;;;;;;4933646;28;20019;-81
2022/12/07 09:26:15;;;;;;;12.88;7.10;;;4.20;99.90;;;;;;4959931;28;20165;-82
2022/12/07 09:28:40;;;;;;;20.05;10.50;;;4.30;99.90;;;;;;4960327;28;20065;-81
2022/12/07 09:31:06;;;;;;;16.38;9.93;;;4.40;99.90;;;;;;4979292;28;20028;-80
2022/12/07 09:33:32;;;;;;;17.23;10.60;;;4.40;99.90;;;;;;4956854;28;20503;-82
2022/12/07 09:35:58;;;;;;;16.33;11.88;;;4.40;99.90;;;;;;4953670;28;20035;-81
2022/12/07 09:38:26;;;;;;;16.83;8.65;;;4.40;99.90;;;;;;4979840;28;20692;-82
2022/12/07 09:40:52;;;;;;;13.65;9.00;;;4.50;99.90;;;;;;4934362;28;20035;-81
2022/12/07 09:43:21;;;;;;;23.83;13.60;;;4.50;99.90;;;;;;4960137;28;20046;-82
2022/12/07 09:45:51;;;;;;;16.10;8.70;;;4.60;99.90;;;;;;4980046;28;20058;-82
2022/12/07 09:48:19;;;;;;;20.95;12.05;;;4.60;99.90;;;;;;4967349;28;20125;-82
2022/12/07 09:50:45;;;;;;;23.60;12.10;;;4.70;99.90;;;;;;4981766;28;20031;-82
2022/12/07 09:53:15;;;;;;;18.90;11.43;;;4.70;99.90;;;;;;4963997;28;20122;-82
2022/12/07 09:55:42;;;;;;;19.20;12.32;;;4.70;99.90;;;;;;4944757;28;20047;-81
2022/12/07 09:58:28;;;;;;;15.05;8.40;;;4.80;99.90;;;;;;4937821;28;20119;-82
2022/12/07 10:00:59;;;;;;;15.07;8.35;;;4.80;99.90;;;;;;4940922;28;20042;-82
2022/12/07 10:03:27;;;;;;;20.55;10.68;;;4.80;99.90;;;;;;4988360;28;20477;-81
2022/12/07 10:05:52;;;;;;;21.67;9.30;;;4.80;99.90;;;;;;4932306;28;20446;-82
2022/12/07 10:08:18;;;;;;;18.50;7.75;;;4.80;99.90;;;;;;4980776;28;20089;-82
2022/12/07 10:10:45;;;;;;;11.68;4.85;;;4.90;99.90;;;;;;4933909;28;20034;-82
2022/12/07 10:13:11;;;;;;;16.70;9.63;;;4.90;99.90;;;;;;4983799;28;20027;-82
2022/12/07 10:15:45;;;;;;;18.10;9.13;;;4.90;99.90;;;;;;4977877;28;20039;-81
2022/12/07 10:18:32;;;;;;;13.50;6.53;;;5.00;99.90;;;;;;4997326;28;20113;-81
2022/12/07 10:21:25;;;;;;;21.02;8.73;;;5.10;99.90;;;;;;4967889;28;20046;-81
2022/12/07 10:24:10;;;;;;;11.95;6.78;;;5.10;99.90;;;;;;4961420;28;20034;-81
2022/12/07 10:26:52;;;;;;;14.43;7.35;;;5.20;99.90;;;;;;4978735;28;20085;-81
2022/12/07 10:29:27;;;;;;;12.95;7.82;;;5.30;99.90;;;;;;4964001;28;20031;-81
2022/12/07 10:32:01;;;;;;;15.82;8.30;;;5.40;99.90;;;;;;4964288;28;20034;-81
2022/12/07 10:34:28;;;;;;;14.45;8.20;;;5.50;99.90;;;;;;4965585;28;20517;-81
2022/12/07 10:36:54;;;;;;;11.77;6.47;;;5.60;99.90;;;;;;4968087;28;20038;-81
2022/12/07 10:39:21;;;;;;;11.02;5.20;;;5.70;99.90;;;;;;4933603;28;20027;-80
2022/12/07 10:42:05;;;;;;;10.77;6.22;;;5.90;99.90;;;;;;4935292;28;20027;-81
2022/12/07 10:44:32;;;;;;;14.32;6.57;;;6.20;99.90;;;;;;4997058;28;20081;-81
2022/12/07 10:47:08;;;;;;;11.27;5.63;;;6.20;99.90;;;;;;4957883;28;20034;-81
2022/12/07 10:50:10;;;;;;;15.18;6.15;;;6.20;99.90;;;;;;4949896;28;20841;-81
2022/12/07 10:52:54;;;;;;;13.88;6.47;;;6.30;99.90;;;;;;4992857;28;20027;-81
2022/12/07 10:55:45;;;;;;;11.65;6.10;;;6.30;99.90;;;;;;4959824;28;20569;-81
2022/12/07 10:58:29;;;;;;;12.70;6.13;;;6.40;99.90;;;;;;4969206;28;20459;-81
2022/12/07 11:01:20;;;;;;;11.88;6.25;;;6.50;99.90;;;;;;4993873;28;20031;-81
2022/12/07 11:04:22;;;;;;;13.75;5.35;;;6.50;99.90;;;;;;4990371;28;20035;-80
2022/12/07 11:06:51;;;;;;;11.23;5.90;;;6.60;99.90;;;;;;4957435;28;20531;-81
2022/12/07 11:09:47;;;;;;;11.20;5.45;;;6.60;99.90;;;;;;4965432;28;20870;-79
2022/12/07 11:12:31;;;;;;;9.35;4.80;;;6.70;99.90;;;;;;4962204;28;20031;-79
2022/12/07 11:15:12;;;;;;;5.20;3.70;;;6.70;99.90;;;;;;4962529;28;20125;-79
2022/12/07 11:17:58;;;;;;;12.23;7.63;;;6.80;99.90;;;;;;4965237;28;20027;-79
2022/12/07 11:20:42;;;;;;;13.98;5.20;;;6.80;99.90;;;;;;4960528;28;20517;-80
2022/12/07 11:23:29;;;;;;;19.30;6.15;;;6.80;99.90;;;;;;4963528;28;20027;-79
2022/12/07 11:26:30;;;;;;;16.85;5.13;;;6.80;99.90;;;;;;4997592;28;20491;-79
2022/12/07 11:29:08;;;;;;;8.27;4.47;;;6.80;99.90;;;;;;4984399;28;20031;-80
2022/12/07 11:31:46;;;;;;;14.10;6.38;;;6.90;99.90;;;;;;4962552;28;20042;-80
2022/12/07 11:34:22;;;;;;;12.18;6.40;;;6.80;99.90;;;;;;4968005;28;20122;-80
2022/12/07 11:36:48;;;;;;;;;;;6.80;99.90;;;;;;4945725;28;20034;-80
2022/12/07 11:39:28;;;;;;;16.98;7.28;;;6.70;99.90;;;;;;4992332;28;19910;-80
2022/12/07 11:42:02;;;;;;;18.48;5.57;;;6.60;99.90;;;;;;4949008;28;20184;-80
2022/12/07 11:44:33;;;;;;;18.20;7.07;;;6.60;99.90;;;;;;4978906;28;20039;-80
2022/12/07 11:47:02;;;;;;;12.20;6.75;;;6.50;99.90;;;;;;4943175;28;20035;-80
2022/12/07 11:49:53;;;;;;;12.93;7.13;;;6.50;99.90;;;;;;4993944;28;20058;-80
2022/12/07 11:52:35;;;;;;;15.25;8.50;;;6.40;99.90;;;;;;4948789;28;20031;-80
2022/12/07 11:55:01;;;;;;;12.85;8.20;;;6.40;99.90;;;;;;4946040;28;20045;-80
2022/12/07 11:57:40;;;;;;;19.23;8.23;;;6.30;99.90;;;;;;4957718;28;20411;-80
2022/12/07 12:00:12;;;;;;;8.70;5.18;;;6.40;99.90;;;;;;4962913;28;20035;-80
2022/12/07 12:02:55;;;;;;;15.43;7.97;;;6.40;99.90;;;;;;4959178;28;20039;-80
2022/12/07 12:05:22;;;;;;;17.33;7.85;;;6.40;99.90;;;;;;4960158;28;20054;-80
2022/12/07 12:07:59;;;;;;;18.80;7.70;;;6.40;99.90;;;;;;4991654;28;20081;-80
2022/12/07 12:10:32;;;;;;;11.40;6.07;;;6.40;99.90;;;;;;4962991;28;20038;-80
2022/12/07 12:13:08;;;;;;;17.05;7.57;;;6.40;99.90;;;;;;4944933;28;20494;-80
2022/12/07 12:15:42;;;;;;;11.80;6.80;;;6.40;99.90;;;;;;4961068;28;20078;-79
2022/12/07 12:18:30;;;;;;;10.82;6.93;;;6.40;99.90;;;;;;4961614;28;20525;-80
2022/12/07 12:21:01;;;;;;;14.50;6.45;;;6.40;99.90;;;;;;4959732;28;20563;-79
2022/12/07 12:23:32;;;;;;;11.20;5.10;;;6.40;99.90;;;;;;4963179;28;20097;-79
2022/12/07 12:25:59;;;;;;;14.52;5.93;;;6.40;99.90;;;;;;4960100;28;20031;-79
2022/12/07 12:28:59;;;;;;;8.88;5.40;;;6.40;99.90;;;;;;4935097;28;20028;-80
2022/12/07 12:31:30;;;;;;;10.88;6.22;;;6.40;99.90;;;;;;4964045;28;20806;-79
2022/12/07 12:34:00;;;;;;;13.70;5.32;;;6.40;99.90;;;;;;4966011;28;20114;-78
2022/12/07 12:36:34;;;;;;;7.47;4.43;;;6.30;99.90;;;;;;4958729;28;20049;-79
2022/12/07 12:39:06;;;;;;;9.98;4.45;;;6.40;99.90;;;;;;4962437;28;20402;-79
2022/12/07 12:44:15;;;;;;;12.35;5.18;;;6.40;99.90;;;;;;4961012;28;20034;-79
2022/12/07 12:46:48;;;;;;;13.00;4.20;;;6.40;99.90;;;;;;4962194;28;20126;-79
2022/12/07 12:49:19;;;;;;;8.95;3.83;;;6.40;99.90;;;;;;4975140;28;20031;-80
2022/12/07 12:51:51;;;;;;;7.70;4.13;;;6.40;99.90;;;;;;4960333;28;20815;-80
2022/12/07 12:54:30;;;;;;;10.60;3.70;;;6.40;99.90;;;;;;4972078;28;20533;-79
2022/12/07 12:57:07;;;;;;;11.43;3.97;;;6.40;99.90;;;;;;4946454;28;20019;-80
2022/12/07 12:59:56;;;;;;;6.90;3.70;;;6.40;99.90;;;;;;4979855;28;20027;-80
2022/12/07 13:02:25;;;;;;;9.35;3.75;;;6.40;99.90;;;;;;4973088;28;20046;-80
2022/12/07 13:04:58;;;;;;;7.60;3.33;;;6.40;99.90;;;;;;4988966;28;20142;-79